sensor_id;sensor_type;location;lat;lon;timestamp;P1;durP1;ratioP1;P2;durP2;ratioP2
16626;SDS011;8427;52.204;7.202;2023-04-03T00:01:27;44.00;;;40.20;;
16626;SDS011;8427;52.204;7.202;2023-04-03T00:03:56;42.70;;;39.30;;
16626;SDS011;8427;52.204;7.202;2023-04-03T00:06:24;42.80;;;39.50;;
16626;SDS011;8427;52.204;7.202;2023-04-03T00:08:54;42.50;;;39.30;;
16626;SDS011;8427;52.204;7.202;2023-04-03T00:11:23;42.70;;;39.40;;
16626;SDS011;8427;52.204;7.202;2023-04-03T00:13:53;42.10;;;39.00;;
16626;SDS011;8427;52.204;7.202;2023-04-03T00:16:21;42.70;;;39.40;;
16626;SDS011;8427;52.204;7.202;2023-04-03T00:18:50;42.60;;;39.38;;
16626;SDS011;8427;52.204;7.202;2023-04-03T00:21:18;43.70;;;39.95;;
16626;SDS011;8427;52.204;7.202;2023-04-03T00:23:46;44.30;;;40.30;;
16626;SDS011;8427;52.204;7.202;2023-04-03T00:26:14;45.30;;;40.90;;
16626;SDS011;8427;52.204;7.202;2023-04-03T00:28:42;48.40;;;42.55;;
16626;SDS011;8427;52.204;7.202;2023-04-03T00:31:13;44.78;;;40.70;;
16626;SDS011;8427;52.204;7.202;2023-04-03T00:33:43;45.40;;;41.00;;
16626;SDS011;8427;52.204;7.202;2023-04-03T00:36:11;44.95;;;40.75;;
16626;SDS011;8427;52.204;7.202;2023-04-03T00:38:40;43.17;;;39.70;;
16626;SDS011;8427;52.204;7.202;2023-04-03T00:41:08;44.60;;;40.50;;
16626;SDS011;8427;52.204;7.202;2023-04-03T00:43:36;44.90;;;40.80;;
16626;SDS011;8427;52.204;7.202;2023-04-03T00:46:04;43.30;;;39.80;;
16626;SDS011;8427;52.204;7.202;2023-04-03T00:48:34;44.13;;;40.33;;
16626;SDS011;8427;52.204;7.202;2023-04-03T00:51:07;43.20;;;39.50;;
16626;SDS011;8427;52.204;7.202;2023-04-03T00:53:40;44.35;;;40.50;;
16626;SDS011;8427;52.204;7.202;2023-04-03T00:56:12;44.47;;;40.47;;
16626;SDS011;8427;52.204;7.202;2023-04-03T00:58:43;44.65;;;40.63;;
16626;SDS011;8427;52.204;7.202;2023-04-03T01:01:17;44.42;;;40.45;;
16626;SDS011;8427;52.204;7.202;2023-04-03T01:03:50;43.30;;;39.70;;
16626;SDS011;8427;52.204;7.202;2023-04-03T01:06:20;42.38;;;39.08;;
16626;SDS011;8427;52.204;7.202;2023-04-03T01:08:52;43.70;;;40.00;;
16626;SDS011;8427;52.204;7.202;2023-04-03T01:11:21;43.90;;;40.10;;
16626;SDS011;8427;52.204;7.202;2023-04-03T01:13:50;44.28;;;40.38;;
16626;SDS011;8427;52.204;7.202;2023-04-03T01:16:19;41.97;;;38.97;;
16626;SDS011;8427;52.204;7.202;2023-04-03T01:22:31;43.92;;;40.10;;
16626;SDS011;8427;52.204;7.202;2023-04-03T01:25:02;44.33;;;40.33;;
16626;SDS011;8427;52.204;7.202;2023-04-03T01:27:30;44.30;;;40.33;;
16626;SDS011;8427;52.204;7.202;2023-04-03T01:29:58;44.30;;;40.20;;
16626;SDS011;8427;52.204;7.202;2023-04-03T01:32:28;43.85;;;39.97;;
16626;SDS011;8427;52.204;7.202;2023-04-03T01:34:56;42.30;;;39.10;;
16626;SDS011;8427;52.204;7.202;2023-04-03T01:37:24;43.75;;;40.00;;
16626;SDS011;8427;52.204;7.202;2023-04-03T01:39:52;43.42;;;39.72;;
16626;SDS011;8427;52.204;7.202;2023-04-03T01:42:21;44.45;;;40.30;;
16626;SDS011;8427;52.204;7.202;2023-04-03T01:44:49;43.60;;;39.83;;
16626;SDS011;8427;52.204;7.202;2023-04-03T01:47:19;42.72;;;39.35;;
16626;SDS011;8427;52.204;7.202;2023-04-03T01:49:49;43.90;;;40.00;;
16626;SDS011;8427;52.204;7.202;2023-04-03T01:52:18;43.13;;;39.53;;
16626;SDS011;8427;52.204;7.202;2023-04-03T01:54:46;44.78;;;40.58;;
16626;SDS011;8427;52.204;7.202;2023-04-03T01:57:14;44.00;;;39.95;;
16626;SDS011;8427;52.204;7.202;2023-04-03T01:59:42;44.30;;;40.20;;
16626;SDS011;8427;52.204;7.202;2023-04-03T02:02:11;43.77;;;39.87;;
16626;SDS011;8427;52.204;7.202;2023-04-03T02:04:40;43.50;;;39.73;;
16626;SDS011;8427;52.204;7.202;2023-04-03T02:07:10;44.25;;;40.17;;
16626;SDS011;8427;52.204;7.202;2023-04-03T02:09:41;42.03;;;38.85;;
16626;SDS011;8427;52.204;7.202;2023-04-03T02:12:10;43.40;;;39.65;;
16626;SDS011;8427;52.204;7.202;2023-04-03T02:14:39;43.58;;;39.65;;
16626;SDS011;8427;52.204;7.202;2023-04-03T02:17:07;43.42;;;39.63;;
16626;SDS011;8427;52.204;7.202;2023-04-03T02:19:35;43.90;;;39.90;;
16626;SDS011;8427;52.204;7.202;2023-04-03T02:22:03;44.20;;;40.10;;
16626;SDS011;8427;52.204;7.202;2023-04-03T02:24:34;45.08;;;40.60;;
16626;SDS011;8427;52.204;7.202;2023-04-03T02:27:02;44.60;;;40.30;;
16626;SDS011;8427;52.204;7.202;2023-04-03T02:29:30;44.72;;;40.40;;
16626;SDS011;8427;52.204;7.202;2023-04-03T02:31:58;43.60;;;39.70;;
16626;SDS011;8427;52.204;7.202;2023-04-03T02:34:26;43.80;;;39.90;;
16626;SDS011;8427;52.204;7.202;2023-04-03T02:36:54;43.50;;;39.70;;
16626;SDS011;8427;52.204;7.202;2023-04-03T02:39:22;44.40;;;40.20;;
16626;SDS011;8427;52.204;7.202;2023-04-03T02:41:52;44.10;;;40.10;;
16626;SDS011;8427;52.204;7.202;2023-04-03T02:44:20;42.67;;;39.28;;
16626;SDS011;8427;52.204;7.202;2023-04-03T02:46:49;44.00;;;39.90;;
16626;SDS011;8427;52.204;7.202;2023-04-03T02:49:17;45.83;;;41.10;;
16626;SDS011;8427;52.204;7.202;2023-04-03T02:51:45;44.63;;;40.33;;
16626;SDS011;8427;52.204;7.202;2023-04-03T02:54:13;44.10;;;40.00;;
16626;SDS011;8427;52.204;7.202;2023-04-03T02:56:41;44.30;;;40.10;;
16626;SDS011;8427;52.204;7.202;2023-04-03T02:59:11;45.38;;;40.80;;
16626;SDS011;8427;52.204;7.202;2023-04-03T03:01:39;43.65;;;39.70;;
16626;SDS011;8427;52.204;7.202;2023-04-03T03:04:07;43.40;;;39.60;;
16626;SDS011;8427;52.204;7.202;2023-04-03T03:06:36;42.63;;;39.15;;
16626;SDS011;8427;52.204;7.202;2023-04-03T03:09:04;44.83;;;40.42;;
16626;SDS011;8427;52.204;7.202;2023-04-03T03:11:32;43.50;;;39.60;;
16626;SDS011;8427;52.204;7.202;2023-04-03T03:14:00;43.40;;;39.60;;
16626;SDS011;8427;52.204;7.202;2023-04-03T03:16:29;43.80;;;39.80;;
16626;SDS011;8427;52.204;7.202;2023-04-03T03:18:57;45.92;;;41.10;;
16626;SDS011;8427;52.204;7.202;2023-04-03T03:21:26;43.03;;;39.33;;
16626;SDS011;8427;52.204;7.202;2023-04-03T03:23:57;43.70;;;39.80;;
16626;SDS011;8427;52.204;7.202;2023-04-03T03:26:26;45.08;;;40.58;;
16626;SDS011;8427;52.204;7.202;2023-04-03T03:28:55;44.00;;;40.00;;
16626;SDS011;8427;52.204;7.202;2023-04-03T03:31:23;43.95;;;39.85;;
16626;SDS011;8427;52.204;7.202;2023-04-03T03:33:53;44.60;;;40.30;;
16626;SDS011;8427;52.204;7.202;2023-04-03T03:36:21;44.80;;;40.40;;
16626;SDS011;8427;52.204;7.202;2023-04-03T03:38:49;45.33;;;40.83;;
16626;SDS011;8427;52.204;7.202;2023-04-03T03:41:18;42.13;;;38.83;;
16626;SDS011;8427;52.204;7.202;2023-04-03T03:43:45;43.60;;;39.70;;
16626;SDS011;8427;52.204;7.202;2023-04-03T03:46:14;42.50;;;39.00;;
16626;SDS011;8427;52.204;7.202;2023-04-03T03:48:42;44.95;;;40.55;;
16626;SDS011;8427;52.204;7.202;2023-04-03T03:51:12;43.50;;;39.60;;
16626;SDS011;8427;52.204;7.202;2023-04-03T03:53:40;43.47;;;39.67;;
16626;SDS011;8427;52.204;7.202;2023-04-03T03:56:09;43.20;;;39.40;;
16626;SDS011;8427;52.204;7.202;2023-04-03T04:01:06;42.67;;;39.10;;
16626;SDS011;8427;52.204;7.202;2023-04-03T04:03:35;41.97;;;38.60;;
16626;SDS011;8427;52.204;7.202;2023-04-03T04:06:03;42.35;;;38.92;;
16626;SDS011;8427;52.204;7.202;2023-04-03T04:08:33;44.00;;;39.83;;
16626;SDS011;8427;52.204;7.202;2023-04-03T04:11:01;42.35;;;38.85;;
16626;SDS011;8427;52.204;7.202;2023-04-03T04:13:29;41.80;;;38.60;;
16626;SDS011;8427;52.204;7.202;2023-04-03T04:15:57;42.88;;;39.17;;
16626;SDS011;8427;52.204;7.202;2023-04-03T04:18:25;43.30;;;39.30;;
16626;SDS011;8427;52.204;7.202;2023-04-03T04:20:54;44.05;;;39.75;;
16626;SDS011;8427;52.204;7.202;2023-04-03T04:23:24;42.50;;;38.90;;
16626;SDS011;8427;52.204;7.202;2023-04-03T04:25:53;42.00;;;38.60;;
16626;SDS011;8427;52.204;7.202;2023-04-03T04:28:21;43.20;;;39.40;;
16626;SDS011;8427;52.204;7.202;2023-04-03T04:30:49;43.28;;;39.30;;
16626;SDS011;8427;52.204;7.202;2023-04-03T04:33:17;41.80;;;38.50;;
16626;SDS011;8427;52.204;7.202;2023-04-03T04:35:46;42.60;;;39.00;;
16626;SDS011;8427;52.204;7.202;2023-04-03T04:38:15;42.42;;;38.85;;
16626;SDS011;8427;52.204;7.202;2023-04-03T04:40:46;42.28;;;38.75;;
16626;SDS011;8427;52.204;7.202;2023-04-03T04:43:17;41.50;;;38.30;;
16626;SDS011;8427;52.204;7.202;2023-04-03T04:45:45;42.40;;;38.90;;
16626;SDS011;8427;52.204;7.202;2023-04-03T04:48:13;42.03;;;38.63;;
16626;SDS011;8427;52.204;7.202;2023-04-03T04:50:41;50.58;;;41.35;;
16626;SDS011;8427;52.204;7.202;2023-04-03T04:53:09;43.70;;;39.58;;
16626;SDS011;8427;52.204;7.202;2023-04-03T04:55:37;42.38;;;38.80;;
16626;SDS011;8427;52.204;7.202;2023-04-03T04:58:06;41.80;;;38.50;;
16626;SDS011;8427;52.204;7.202;2023-04-03T05:00:35;42.60;;;38.90;;
16626;SDS011;8427;52.204;7.202;2023-04-03T05:03:03;42.80;;;39.10;;
16626;SDS011;8427;52.204;7.202;2023-04-03T05:05:31;42.65;;;38.97;;
16626;SDS011;8427;52.204;7.202;2023-04-03T05:08:00;43.30;;;39.30;;
16626;SDS011;8427;52.204;7.202;2023-04-03T05:10:29;43.08;;;39.20;;
16626;SDS011;8427;52.204;7.202;2023-04-03T05:12:57;43.37;;;39.47;;
16626;SDS011;8427;52.204;7.202;2023-04-03T05:15:25;43.00;;;39.10;;
16626;SDS011;8427;52.204;7.202;2023-04-03T05:17:55;41.67;;;38.38;;
16626;SDS011;8427;52.204;7.202;2023-04-03T05:20:23;41.53;;;38.33;;
16626;SDS011;8427;52.204;7.202;2023-04-03T05:22:51;41.67;;;38.35;;
16626;SDS011;8427;52.204;7.202;2023-04-03T05:25:19;41.20;;;38.10;;
16626;SDS011;8427;52.204;7.202;2023-04-03T05:27:47;41.42;;;38.22;;
16626;SDS011;8427;52.204;7.202;2023-04-03T05:30:16;42.30;;;38.70;;
16626;SDS011;8427;52.204;7.202;2023-04-03T05:32:46;41.58;;;38.38;;
16626;SDS011;8427;52.204;7.202;2023-04-03T05:35:15;41.45;;;38.28;;
16626;SDS011;8427;52.204;7.202;2023-04-03T05:37:44;41.40;;;38.30;;
16626;SDS011;8427;52.204;7.202;2023-04-03T05:40:12;40.47;;;37.67;;
16626;SDS011;8427;52.204;7.202;2023-04-03T05:42:43;42.35;;;38.80;;
16626;SDS011;8427;52.204;7.202;2023-04-03T05:45:11;42.20;;;38.80;;
16626;SDS011;8427;52.204;7.202;2023-04-03T05:47:39;41.70;;;38.45;;
16626;SDS011;8427;52.204;7.202;2023-04-03T05:50:11;41.63;;;38.40;;
16626;SDS011;8427;52.204;7.202;2023-04-03T05:52:42;41.88;;;38.55;;
16626;SDS011;8427;52.204;7.202;2023-04-03T05:55:12;40.67;;;37.88;;
16626;SDS011;8427;52.204;7.202;2023-04-03T05:57:41;41.40;;;38.30;;
16626;SDS011;8427;52.204;7.202;2023-04-03T06:00:12;41.65;;;38.45;;
16626;SDS011;8427;52.204;7.202;2023-04-03T06:02:42;41.80;;;38.60;;
16626;SDS011;8427;52.204;7.202;2023-04-03T06:05:11;41.40;;;38.30;;
16626;SDS011;8427;52.204;7.202;2023-04-03T06:07:40;41.90;;;38.60;;
16626;SDS011;8427;52.204;7.202;2023-04-03T06:10:10;42.88;;;39.20;;
16626;SDS011;8427;52.204;7.202;2023-04-03T06:12:39;41.90;;;38.60;;
16626;SDS011;8427;52.204;7.202;2023-04-03T06:15:08;41.60;;;38.40;;
16626;SDS011;8427;52.204;7.202;2023-04-03T06:17:37;41.50;;;38.40;;
16626;SDS011;8427;52.204;7.202;2023-04-03T06:20:06;42.10;;;38.80;;
16626;SDS011;8427;52.204;7.202;2023-04-03T06:22:35;41.90;;;38.60;;
16626;SDS011;8427;52.204;7.202;2023-04-03T06:25:13;42.10;;;38.70;;
16626;SDS011;8427;52.204;7.202;2023-04-03T06:27:43;41.70;;;38.50;;
16626;SDS011;8427;52.204;7.202;2023-04-03T06:30:11;41.45;;;38.38;;
16626;SDS011;8427;52.204;7.202;2023-04-03T06:32:40;41.80;;;38.50;;
16626;SDS011;8427;52.204;7.202;2023-04-03T06:35:09;41.70;;;38.50;;
16626;SDS011;8427;52.204;7.202;2023-04-03T06:37:37;41.90;;;38.63;;
16626;SDS011;8427;52.204;7.202;2023-04-03T06:40:09;42.60;;;39.00;;
16626;SDS011;8427;52.204;7.202;2023-04-03T06:42:46;42.15;;;38.78;;
16626;SDS011;8427;52.204;7.202;2023-04-03T06:45:14;41.70;;;38.50;;
16626;SDS011;8427;52.204;7.202;2023-04-03T06:47:43;42.00;;;38.70;;
16626;SDS011;8427;52.204;7.202;2023-04-03T06:50:11;42.85;;;39.13;;
16626;SDS011;8427;52.204;7.202;2023-04-03T06:52:41;41.20;;;38.30;;
16626;SDS011;8427;52.204;7.202;2023-04-03T06:55:10;42.70;;;39.10;;
16626;SDS011;8427;52.204;7.202;2023-04-03T06:57:39;42.83;;;39.13;;
16626;SDS011;8427;52.204;7.202;2023-04-03T07:00:07;42.97;;;39.28;;
16626;SDS011;8427;52.204;7.202;2023-04-03T07:02:38;42.70;;;39.10;;
16626;SDS011;8427;52.204;7.202;2023-04-03T07:05:06;42.03;;;38.85;;
16626;SDS011;8427;52.204;7.202;2023-04-03T07:07:35;42.70;;;39.10;;
16626;SDS011;8427;52.204;7.202;2023-04-03T07:10:04;44.20;;;39.90;;
16626;SDS011;8427;52.204;7.202;2023-04-03T07:12:35;43.30;;;39.50;;
16626;SDS011;8427;52.204;7.202;2023-04-03T07:15:04;42.70;;;39.10;;
16626;SDS011;8427;52.204;7.202;2023-04-03T07:17:33;43.50;;;39.70;;
16626;SDS011;8427;52.204;7.202;2023-04-03T07:20:02;44.80;;;40.10;;
16626;SDS011;8427;52.204;7.202;2023-04-03T07:22:31;43.40;;;39.60;;
16626;SDS011;8427;52.204;7.202;2023-04-03T07:24:59;43.90;;;39.85;;
16626;SDS011;8427;52.204;7.202;2023-04-03T07:27:27;43.30;;;39.60;;
16626;SDS011;8427;52.204;7.202;2023-04-03T07:29:58;43.63;;;39.75;;
16626;SDS011;8427;52.204;7.202;2023-04-03T07:32:26;43.00;;;39.50;;
16626;SDS011;8427;52.204;7.202;2023-04-03T07:34:55;43.22;;;39.53;;
16626;SDS011;8427;52.204;7.202;2023-04-03T07:37:23;43.50;;;39.70;;
16626;SDS011;8427;52.204;7.202;2023-04-03T07:39:51;43.67;;;39.88;;
16626;SDS011;8427;52.204;7.202;2023-04-03T07:42:19;43.40;;;39.60;;
16626;SDS011;8427;52.204;7.202;2023-04-03T07:44:47;44.20;;;40.20;;
16626;SDS011;8427;52.204;7.202;2023-04-03T07:47:17;43.65;;;39.90;;
16626;SDS011;8427;52.204;7.202;2023-04-03T07:49:46;44.55;;;40.33;;
16626;SDS011;8427;52.204;7.202;2023-04-03T07:52:15;43.63;;;39.83;;
16626;SDS011;8427;52.204;7.202;2023-04-03T07:54:49;43.80;;;40.00;;
16626;SDS011;8427;52.204;7.202;2023-04-03T07:57:17;43.90;;;40.00;;
16626;SDS011;8427;52.204;7.202;2023-04-03T07:59:45;44.33;;;40.28;;
16626;SDS011;8427;52.204;7.202;2023-04-03T08:02:13;44.40;;;40.30;;
16626;SDS011;8427;52.204;7.202;2023-04-03T08:04:42;43.90;;;40.00;;
16626;SDS011;8427;52.204;7.202;2023-04-03T08:07:11;43.95;;;40.10;;
16626;SDS011;8427;52.204;7.202;2023-04-03T08:09:39;44.20;;;40.22;;
16626;SDS011;8427;52.204;7.202;2023-04-03T08:12:08;44.20;;;40.20;;
16626;SDS011;8427;52.204;7.202;2023-04-03T08:14:37;44.03;;;40.03;;
16626;SDS011;8427;52.204;7.202;2023-04-03T08:17:06;44.30;;;40.30;;
16626;SDS011;8427;52.204;7.202;2023-04-03T08:19:37;43.88;;;40.08;;
16626;SDS011;8427;52.204;7.202;2023-04-03T08:22:07;44.40;;;40.30;;
16626;SDS011;8427;52.204;7.202;2023-04-03T08:24:36;44.05;;;40.17;;
16626;SDS011;8427;52.204;7.202;2023-04-03T08:27:17;44.38;;;40.38;;
16626;SDS011;8427;52.204;7.202;2023-04-03T08:29:45;44.70;;;40.60;;
16626;SDS011;8427;52.204;7.202;2023-04-03T08:32:13;45.15;;;40.80;;
16626;SDS011;8427;52.204;7.202;2023-04-03T08:34:42;44.60;;;40.60;;
16626;SDS011;8427;52.204;7.202;2023-04-03T08:37:12;44.58;;;40.67;;
16626;SDS011;8427;52.204;7.202;2023-04-03T08:39:42;44.60;;;40.60;;
16626;SDS011;8427;52.204;7.202;2023-04-03T08:42:13;44.50;;;40.50;;
16626;SDS011;8427;52.204;7.202;2023-04-03T08:44:46;45.10;;;40.90;;
16626;SDS011;8427;52.204;7.202;2023-04-03T08:47:20;44.80;;;40.70;;
16626;SDS011;8427;52.204;7.202;2023-04-03T08:49:53;44.97;;;40.90;;
16626;SDS011;8427;52.204;7.202;2023-04-03T08:52:27;44.67;;;40.70;;
16626;SDS011;8427;52.204;7.202;2023-04-03T08:55:03;44.80;;;40.90;;
16626;SDS011;8427;52.204;7.202;2023-04-03T08:57:36;44.90;;;40.90;;
16626;SDS011;8427;52.204;7.202;2023-04-03T09:00:16;45.40;;;41.10;;
16626;SDS011;8427;52.204;7.202;2023-04-03T09:02:47;45.80;;;41.58;;
16626;SDS011;8427;52.204;7.202;2023-04-03T09:05:17;45.53;;;41.17;;
16626;SDS011;8427;52.204;7.202;2023-04-03T09:07:52;45.08;;;41.03;;
16626;SDS011;8427;52.204;7.202;2023-04-03T09:10:27;45.60;;;41.40;;
16626;SDS011;8427;52.204;7.202;2023-04-03T09:12:59;45.70;;;41.50;;
16626;SDS011;8427;52.204;7.202;2023-04-03T09:15:33;46.70;;;41.93;;
16626;SDS011;8427;52.204;7.202;2023-04-03T09:18:05;45.60;;;41.40;;
16626;SDS011;8427;52.204;7.202;2023-04-03T09:20:42;45.80;;;41.50;;
16626;SDS011;8427;52.204;7.202;2023-04-03T09:34:05;47.60;;;42.50;;
16626;SDS011;8427;52.204;7.202;2023-04-03T09:36:39;47.47;;;42.42;;
16626;SDS011;8427;52.204;7.202;2023-04-03T09:39:10;50.28;;;42.95;;
16626;SDS011;8427;52.204;7.202;2023-04-03T09:41:40;47.70;;;42.60;;
16626;SDS011;8427;52.204;7.202;2023-04-03T09:44:20;47.60;;;42.50;;
16626;SDS011;8427;52.204;7.202;2023-04-03T09:46:51;47.45;;;42.35;;
16626;SDS011;8427;52.204;7.202;2023-04-03T09:49:22;51.22;;;42.80;;
16626;SDS011;8427;52.204;7.202;2023-04-03T09:51:50;47.00;;;42.20;;
16626;SDS011;8427;52.204;7.202;2023-04-03T09:54:33;47.70;;;42.60;;
16626;SDS011;8427;52.204;7.202;2023-04-03T09:57:13;47.78;;;42.60;;
16626;SDS011;8427;52.204;7.202;2023-04-03T09:59:47;47.30;;;42.40;;
16626;SDS011;8427;52.204;7.202;2023-04-03T10:02:30;46.90;;;42.30;;
16626;SDS011;8427;52.204;7.202;2023-04-03T10:08:08;47.20;;;42.50;;
16626;SDS011;8427;52.204;7.202;2023-04-03T10:10:37;47.78;;;42.88;;
16626;SDS011;8427;52.204;7.202;2023-04-03T10:13:07;46.47;;;42.08;;
16626;SDS011;8427;52.204;7.202;2023-04-03T10:15:48;47.10;;;42.40;;
16626;SDS011;8427;52.204;7.202;2023-04-03T10:18:29;46.00;;;41.80;;
16626;SDS011;8427;52.204;7.202;2023-04-03T10:21:04;47.63;;;42.73;;
16626;SDS011;8427;52.204;7.202;2023-04-03T10:23:47;47.67;;;42.70;;
16626;SDS011;8427;52.204;7.202;2023-04-03T10:26:24;46.75;;;42.20;;
16626;SDS011;8427;52.204;7.202;2023-04-03T10:29:01;48.60;;;43.10;;
16626;SDS011;8427;52.204;7.202;2023-04-03T10:31:37;46.00;;;41.80;;
16626;SDS011;8427;52.204;7.202;2023-04-03T10:34:12;47.30;;;42.60;;
16626;SDS011;8427;52.204;7.202;2023-04-03T10:36:52;48.65;;;43.35;;
16626;SDS011;8427;52.204;7.202;2023-04-03T10:39:23;49.60;;;43.40;;
16626;SDS011;8427;52.204;7.202;2023-04-03T10:42:00;47.53;;;42.63;;
16626;SDS011;8427;52.204;7.202;2023-04-03T10:47:37;47.23;;;42.63;;
16626;SDS011;8427;52.204;7.202;2023-04-03T10:50:20;47.60;;;42.80;;
16626;SDS011;8427;52.204;7.202;2023-04-03T10:52:57;47.70;;;42.90;;
16626;SDS011;8427;52.204;7.202;2023-04-03T10:55:34;47.70;;;42.80;;
16626;SDS011;8427;52.204;7.202;2023-04-03T10:58:06;47.63;;;42.83;;
16626;SDS011;8427;52.204;7.202;2023-04-03T11:00:41;49.75;;;43.63;;
16626;SDS011;8427;52.204;7.202;2023-04-03T11:03:13;49.67;;;43.65;;
16626;SDS011;8427;52.204;7.202;2023-04-03T11:05:45;52.97;;;43.90;;
16626;SDS011;8427;52.204;7.202;2023-04-03T11:08:21;48.72;;;43.38;;
16626;SDS011;8427;52.204;7.202;2023-04-03T11:10:55;50.77;;;44.00;;
16626;SDS011;8427;52.204;7.202;2023-04-03T11:13:28;48.60;;;43.50;;
16626;SDS011;8427;52.204;7.202;2023-04-03T11:16:03;48.90;;;43.50;;
16626;SDS011;8427;52.204;7.202;2023-04-03T11:18:34;51.50;;;43.92;;
16626;SDS011;8427;52.204;7.202;2023-04-03T11:21:07;47.90;;;43.00;;
16626;SDS011;8427;52.204;7.202;2023-04-03T11:23:42;48.60;;;43.40;;
16626;SDS011;8427;52.204;7.202;2023-04-03T11:26:16;48.92;;;43.55;;
16626;SDS011;8427;52.204;7.202;2023-04-03T11:28:47;49.10;;;43.70;;
16626;SDS011;8427;52.204;7.202;2023-04-03T11:31:26;48.70;;;43.50;;
16626;SDS011;8427;52.204;7.202;2023-04-03T11:34:08;47.60;;;42.90;;
16626;SDS011;8427;52.204;7.202;2023-04-03T11:36:49;48.60;;;43.40;;
16626;SDS011;8427;52.204;7.202;2023-04-03T11:39:23;49.08;;;43.70;;
16626;SDS011;8427;52.204;7.202;2023-04-03T11:41:55;48.90;;;43.70;;
16626;SDS011;8427;52.204;7.202;2023-04-03T11:44:40;48.20;;;43.40;;
16626;SDS011;8427;52.204;7.202;2023-04-03T11:47:09;49.33;;;43.97;;
16626;SDS011;8427;52.204;7.202;2023-04-03T11:49:51;53.13;;;44.40;;
16626;SDS011;8427;52.204;7.202;2023-04-03T11:52:54;48.80;;;43.60;;
16626;SDS011;8427;52.204;7.202;2023-04-03T11:58:32;48.10;;;43.30;;
16626;SDS011;8427;52.204;7.202;2023-04-03T12:01:06;51.63;;;44.17;;
16626;SDS011;8427;52.204;7.202;2023-04-03T12:09:34;48.60;;;43.50;;
16626;SDS011;8427;52.204;7.202;2023-04-03T12:12:27;49.00;;;43.80;;
16626;SDS011;8427;52.204;7.202;2023-04-03T12:15:11;48.42;;;43.42;;
16626;SDS011;8427;52.204;7.202;2023-04-03T12:17:48;48.10;;;43.20;;
16626;SDS011;8427;52.204;7.202;2023-04-03T12:23:25;55.17;;;44.50;;
16626;SDS011;8427;52.204;7.202;2023-04-03T12:26:01;48.43;;;43.40;;
16626;SDS011;8427;52.204;7.202;2023-04-03T12:28:38;51.75;;;44.10;;
16626;SDS011;8427;52.204;7.202;2023-04-03T12:31:07;52.25;;;44.05;;
16626;SDS011;8427;52.204;7.202;2023-04-03T12:36:54;48.55;;;43.42;;
16626;SDS011;8427;52.204;7.202;2023-04-03T12:39:48;53.50;;;44.40;;
16626;SDS011;8427;52.204;7.202;2023-04-03T12:42:39;49.58;;;43.92;;
16626;SDS011;8427;52.204;7.202;2023-04-03T12:45:20;49.20;;;43.80;;
16626;SDS011;8427;52.204;7.202;2023-04-03T12:47:52;49.30;;;43.90;;
16626;SDS011;8427;52.204;7.202;2023-04-03T12:50:22;48.70;;;43.60;;
16626;SDS011;8427;52.204;7.202;2023-04-03T12:52:54;48.93;;;43.70;;
16626;SDS011;8427;52.204;7.202;2023-04-03T12:55:27;49.40;;;43.90;;
16626;SDS011;8427;52.204;7.202;2023-04-03T12:57:55;48.95;;;43.65;;
16626;SDS011;8427;52.204;7.202;2023-04-03T13:00:38;55.63;;;44.67;;
16626;SDS011;8427;52.204;7.202;2023-04-03T13:03:07;49.80;;;43.90;;
16626;SDS011;8427;52.204;7.202;2023-04-03T13:05:50;52.30;;;44.22;;
16626;SDS011;8427;52.204;7.202;2023-04-03T13:12:09;49.80;;;44.03;;
16626;SDS011;8427;52.204;7.202;2023-04-03T13:14:50;50.90;;;43.97;;
16626;SDS011;8427;52.204;7.202;2023-04-03T13:17:28;53.55;;;44.72;;
16626;SDS011;8427;52.204;7.202;2023-04-03T13:19:56;58.15;;;45.40;;
16626;SDS011;8427;52.204;7.202;2023-04-03T13:22:44;52.80;;;44.60;;
16626;SDS011;8427;52.204;7.202;2023-04-03T13:25:19;51.30;;;44.33;;
16626;SDS011;8427;52.204;7.202;2023-04-03T13:27:50;53.88;;;44.67;;
16626;SDS011;8427;52.204;7.202;2023-04-03T13:30:36;49.72;;;44.33;;
16626;SDS011;8427;52.204;7.202;2023-04-03T13:33:18;48.70;;;43.60;;
16626;SDS011;8427;52.204;7.202;2023-04-03T13:35:48;49.70;;;44.20;;
16626;SDS011;8427;52.204;7.202;2023-04-03T13:38:24;49.10;;;43.90;;
16626;SDS011;8427;52.204;7.202;2023-04-03T13:40:55;48.28;;;43.42;;
16626;SDS011;8427;52.204;7.202;2023-04-03T13:43:27;49.83;;;44.05;;
16626;SDS011;8427;52.204;7.202;2023-04-03T13:46:04;49.10;;;43.80;;
16626;SDS011;8427;52.204;7.202;2023-04-03T13:48:52;62.22;;;45.45;;
16626;SDS011;8427;52.204;7.202;2023-04-03T13:51:23;52.47;;;44.20;;
16626;SDS011;8427;52.204;7.202;2023-04-03T13:53:54;51.30;;;44.00;;
16626;SDS011;8427;52.204;7.202;2023-04-03T13:56:26;50.60;;;43.83;;
16626;SDS011;8427;52.204;7.202;2023-04-03T13:59:06;48.50;;;43.45;;
16626;SDS011;8427;52.204;7.202;2023-04-03T14:01:52;49.17;;;43.80;;
16626;SDS011;8427;52.204;7.202;2023-04-03T14:04:26;48.58;;;43.60;;
16626;SDS011;8427;52.204;7.202;2023-04-03T14:06:55;49.10;;;43.80;;
16626;SDS011;8427;52.204;7.202;2023-04-03T14:09:25;53.47;;;44.53;;
16626;SDS011;8427;52.204;7.202;2023-04-03T14:12:04;49.42;;;43.85;;
16626;SDS011;8427;52.204;7.202;2023-04-03T14:14:43;48.87;;;43.67;;
16626;SDS011;8427;52.204;7.202;2023-04-03T14:17:13;51.50;;;44.20;;
16626;SDS011;8427;52.204;7.202;2023-04-03T14:19:52;48.97;;;43.70;;
16626;SDS011;8427;52.204;7.202;2023-04-03T14:22:23;50.72;;;44.00;;
16626;SDS011;8427;52.204;7.202;2023-04-03T14:24:54;49.10;;;43.80;;
16626;SDS011;8427;52.204;7.202;2023-04-03T14:27:25;50.20;;;43.90;;
16626;SDS011;8427;52.204;7.202;2023-04-03T14:29:56;48.05;;;43.25;;
16626;SDS011;8427;52.204;7.202;2023-04-03T14:32:26;49.92;;;44.35;;
16626;SDS011;8427;52.204;7.202;2023-04-03T14:34:56;49.80;;;44.30;;
16626;SDS011;8427;52.204;7.202;2023-04-03T14:37:26;49.58;;;44.28;;
16626;SDS011;8427;52.204;7.202;2023-04-03T14:39:58;51.20;;;44.58;;
16626;SDS011;8427;52.204;7.202;2023-04-03T14:42:29;57.95;;;45.80;;
16626;SDS011;8427;52.204;7.202;2023-04-03T14:44:59;54.80;;;45.17;;
16626;SDS011;8427;52.204;7.202;2023-04-03T14:47:37;49.50;;;44.10;;
16626;SDS011;8427;52.204;7.202;2023-04-03T14:50:13;51.30;;;44.45;;
16626;SDS011;8427;52.204;7.202;2023-04-03T14:52:44;50.15;;;44.13;;
16626;SDS011;8427;52.204;7.202;2023-04-03T14:55:14;49.30;;;43.95;;
16626;SDS011;8427;52.204;7.202;2023-04-03T14:57:44;49.67;;;44.00;;
16626;SDS011;8427;52.204;7.202;2023-04-03T15:00:13;50.97;;;44.30;;
16626;SDS011;8427;52.204;7.202;2023-04-03T15:02:45;57.92;;;45.40;;
16626;SDS011;8427;52.204;7.202;2023-04-03T15:05:16;50.20;;;44.15;;
16626;SDS011;8427;52.204;7.202;2023-04-03T15:07:48;49.40;;;44.00;;
16626;SDS011;8427;52.204;7.202;2023-04-03T15:10:20;53.33;;;44.80;;
16626;SDS011;8427;52.204;7.202;2023-04-03T15:12:52;48.70;;;43.58;;
16626;SDS011;8427;52.204;7.202;2023-04-03T15:15:22;49.45;;;44.05;;
16626;SDS011;8427;52.204;7.202;2023-04-03T15:17:52;48.88;;;43.60;;
16626;SDS011;8427;52.204;7.202;2023-04-03T15:20:26;51.50;;;44.30;;
16626;SDS011;8427;52.204;7.202;2023-04-03T15:22:57;49.70;;;44.20;;
16626;SDS011;8427;52.204;7.202;2023-04-03T15:25:29;49.00;;;43.70;;
16626;SDS011;8427;52.204;7.202;2023-04-03T15:27:58;48.75;;;43.65;;
16626;SDS011;8427;52.204;7.202;2023-04-03T15:30:31;53.03;;;44.60;;
16626;SDS011;8427;52.204;7.202;2023-04-03T15:33:00;48.85;;;43.65;;
16626;SDS011;8427;52.204;7.202;2023-04-03T15:35:33;48.80;;;43.70;;
16626;SDS011;8427;52.204;7.202;2023-04-03T15:38:02;49.40;;;44.00;;
16626;SDS011;8427;52.204;7.202;2023-04-03T15:40:33;65.65;;;46.25;;